createdAt,value
2023-01-28T00:01:37.651Z,20.20
2023-01-28T00:04:06.223Z,22.47
2023-01-28T00:06:36.016Z,22.53
2023-01-28T00:09:04.671Z,24.53
2023-01-28T00:11:33.493Z,20.10
2023-01-28T00:14:02.018Z,21.83
2023-01-28T00:16:30.582Z,22.17
2023-01-28T00:18:58.994Z,21.07
2023-01-28T00:21:27.602Z,23.93
2023-01-28T00:23:58.207Z,21.30
2023-01-28T00:26:27.524Z,20.63
2023-01-28T00:28:55.835Z,24.30
2023-01-28T00:31:26.269Z,25.60
2023-01-28T00:33:55.840Z,24.10
2023-01-28T00:36:26.112Z,23.03
2023-01-28T00:38:57.290Z,23.07
2023-01-28T00:41:27.142Z,23.50
2023-01-28T00:43:56.132Z,23.27
2023-01-28T00:46:25.541Z,22.03
2023-01-28T00:48:54.221Z,24.27
2023-01-28T00:51:22.993Z,20.27
2023-01-28T00:53:51.513Z,18.63
2023-01-28T00:56:21.480Z,20.23
2023-01-28T00:58:49.719Z,19.30
2023-01-28T01:01:20.295Z,19.27
2023-01-28T01:03:54.432Z,20.47
2023-01-28T01:06:23.203Z,19.70
2023-01-28T01:08:51.494Z,20.20
2023-01-28T01:11:21.190Z,18.77
2023-01-28T01:13:52.533Z,16.67
2023-01-28T01:16:21.131Z,16.33
2023-01-28T01:18:49.359Z,16.47
2023-01-28T01:21:20.724Z,21.17
2023-01-28T01:23:49.262Z,16.10
2023-01-28T01:26:17.554Z,16.37
2023-01-28T01:28:48.133Z,20.37
2023-01-28T01:31:18.783Z,17.43
2023-01-28T01:33:48.898Z,17.47
2023-01-28T01:36:20.233Z,18.67
2023-01-28T01:38:49.026Z,16.60
2023-01-28T01:41:25.946Z,14.80
2023-01-28T01:43:58.266Z,16.50
2023-01-28T01:46:36.720Z,18.63
2023-01-28T01:49:14.123Z,18.20
2023-01-28T01:51:42.749Z,16.63
2023-01-28T01:54:11.497Z,19.97
2023-01-28T01:56:44.019Z,18.23
2023-01-28T01:59:17.002Z,17.97
2023-01-28T02:01:46.841Z,19.50
2023-01-28T02:04:20.967Z,19.10
2023-01-28T02:06:49.927Z,18.40
2023-01-28T02:09:26.480Z,20.13
2023-01-28T02:11:57.424Z,19.33
2023-01-28T02:14:31.780Z,21.27
2023-01-28T02:17:01.778Z,20.80
2023-01-28T02:19:38.092Z,20.80
2023-01-28T02:22:36.103Z,20.60
2023-01-28T02:25:27.272Z,21.17
2023-01-28T02:28:15.885Z,19.20
2023-01-28T02:30:50.197Z,20.00
2023-01-28T02:33:22.995Z,21.93
2023-01-28T02:35:54.411Z,22.37
2023-01-28T02:38:30.370Z,20.40
2023-01-28T02:41:09.913Z,19.50
2023-01-28T02:43:42.073Z,21.93
2023-01-28T02:46:40.247Z,21.33
2023-01-28T02:49:12.925Z,20.97
2023-01-28T02:52:09.918Z,21.03
2023-01-28T02:54:46.080Z,21.13
2023-01-28T02:57:26.525Z,21.10
2023-01-28T03:00:04.000Z,20.30
2023-01-28T03:02:37.858Z,19.57
2023-01-28T03:05:13.980Z,20.10
2023-01-28T03:07:42.735Z,19.47
2023-01-28T03:10:16.576Z,19.00
2023-01-28T03:13:04.021Z,16.37
2023-01-28T03:15:56.452Z,18.87
2023-01-28T03:18:46.874Z,16.17
2023-01-28T03:21:39.118Z,17.03
2023-01-28T03:24:29.961Z,16.97
2023-01-28T03:27:21.137Z,16.20
2023-01-28T03:30:10.351Z,14.37
2023-01-28T03:32:58.493Z,16.50
2023-01-28T03:35:49.348Z,16.43
2023-01-28T03:38:23.215Z,14.30
2023-01-28T03:40:53.130Z,14.60
2023-01-28T03:43:21.494Z,15.73
2023-01-28T03:45:51.710Z,14.50
2023-01-28T03:48:22.840Z,15.97
2023-01-28T03:50:52.068Z,15.43
2023-01-28T03:53:20.998Z,14.07
2023-01-28T03:55:51.463Z,15.00
2023-01-28T03:58:20.796Z,14.10
2023-01-28T04:00:49.294Z,13.63
2023-01-28T04:03:20.661Z,13.23
2023-01-28T04:06:00.064Z,13.53
2023-01-28T04:08:28.933Z,14.83
2023-01-28T04:10:57.736Z,14.07
2023-01-28T04:13:26.076Z,16.17
2023-01-28T04:15:54.486Z,15.77
2023-01-28T04:18:27.657Z,16.17
2023-01-28T04:20:56.241Z,14.60
2023-01-28T04:23:24.519Z,14.17
2023-01-28T04:25:53.623Z,18.73
2023-01-28T04:28:21.916Z,16.40
2023-01-28T04:30:50.129Z,19.70
2023-01-28T04:33:18.377Z,17.33
2023-01-28T04:35:48.360Z,18.33
2023-01-28T04:38:16.585Z,16.97
2023-01-28T04:40:44.967Z,19.00
2023-01-28T04:43:13.680Z,18.60
2023-01-28T04:45:41.848Z,19.87
2023-01-28T04:48:10.210Z,18.63
2023-01-28T04:50:38.855Z,21.90
2023-01-28T04:53:11.049Z,18.00
2023-01-28T04:55:39.945Z,19.10
2023-01-28T04:58:10.570Z,19.70
2023-01-28T05:00:38.820Z,20.17
2023-01-28T05:03:10.328Z,17.50
2023-01-28T05:05:38.669Z,19.47
2023-01-28T05:08:07.200Z,18.60
2023-01-28T05:10:37.064Z,19.13
2023-01-28T05:13:05.300Z,18.63
2023-01-28T05:15:33.521Z,18.07
2023-01-28T05:18:05.314Z,19.53
2023-01-28T05:20:33.567Z,19.17
2023-01-28T05:23:01.779Z,19.53
2023-01-28T05:25:30.192Z,19.00
2023-01-28T05:27:59.745Z,20.50
2023-01-28T05:30:28.086Z,19.07
2023-01-28T05:32:57.705Z,20.73
2023-01-28T05:35:25.959Z,20.97
2023-01-28T05:37:56.364Z,20.00
2023-01-28T05:40:24.968Z,20.27
2023-01-28T05:42:53.164Z,18.80
2023-01-28T05:45:22.856Z,19.07
2023-01-28T05:47:51.408Z,20.03
2023-01-28T05:50:20.055Z,19.20
2023-01-28T05:52:48.241Z,20.07
2023-01-28T05:55:18.477Z,21.50
2023-01-28T05:57:47.967Z,19.10
2023-01-28T06:00:17.324Z,19.47
2023-01-28T06:02:47.607Z,20.40
2023-01-28T06:05:15.963Z,19.40
2023-01-28T06:07:46.368Z,20.83
2023-01-28T06:10:15.137Z,20.23
2023-01-28T06:12:44.270Z,18.50
2023-01-28T06:15:13.107Z,21.07
2023-01-28T06:17:41.461Z,20.80
2023-01-28T06:20:12.680Z,20.47
2023-01-28T06:22:41.197Z,20.07
2023-01-28T06:25:10.123Z,21.60
2023-01-28T06:27:38.358Z,22.00
2023-01-28T06:30:07.704Z,19.73
2023-01-28T06:32:36.319Z,21.73
2023-01-28T06:35:04.970Z,19.77
2023-01-28T06:37:34.844Z,21.30
2023-01-28T06:40:03.364Z,21.77
2023-01-28T06:42:31.550Z,22.57
2023-01-28T06:44:59.965Z,22.47
2023-01-28T06:47:28.176Z,21.47
2023-01-28T06:49:56.397Z,22.40
2023-01-28T06:52:24.689Z,21.93
2023-01-28T06:54:54.306Z,19.90
2023-01-28T06:57:22.698Z,22.57
2023-01-28T06:59:51.274Z,20.73
2023-01-28T07:02:19.464Z,22.40
2023-01-28T07:04:47.713Z,23.27
2023-01-28T07:07:16.249Z,22.27
2023-01-28T07:09:44.888Z,26.03
2023-01-28T07:12:14.567Z,25.43
2023-01-28T07:14:42.757Z,27.90
2023-01-28T07:17:11.150Z,34.93
2023-01-28T07:19:39.461Z,28.27
2023-01-28T07:22:07.607Z,30.13
2023-01-28T07:24:35.821Z,35.00
2023-01-28T07:27:04.736Z,24.27
2023-01-28T07:29:34.350Z,22.60
2023-01-28T07:32:02.914Z,25.43
2023-01-28T07:34:31.248Z,22.00
2023-01-28T07:36:59.472Z,25.57
2023-01-28T07:39:27.771Z,28.00
2023-01-28T07:41:55.980Z,27.43
2023-01-28T07:44:24.208Z,24.63
2023-01-28T07:46:54.085Z,26.10
2023-01-28T07:49:22.347Z,25.20
2023-01-28T07:51:51.094Z,27.37
2023-01-28T07:54:19.419Z,26.63
2023-01-28T07:56:47.592Z,22.57
2023-01-28T07:59:15.998Z,24.07
2023-01-28T08:01:44.295Z,23.73
2023-01-28T08:04:14.139Z,24.33
2023-01-28T08:06:42.513Z,27.73
2023-01-28T08:09:10.894Z,22.93
2023-01-28T08:11:40.404Z,21.00
2023-01-28T08:14:08.639Z,20.07
2023-01-28T08:16:36.950Z,21.70
2023-01-28T08:19:05.391Z,22.10
2023-01-28T08:21:34.994Z,20.70
2023-01-28T08:24:03.233Z,19.57
2023-01-28T08:26:31.489Z,24.67
2023-01-28T08:28:59.783Z,20.53
2023-01-28T08:31:29.425Z,22.60
2023-01-28T08:33:57.655Z,20.77
2023-01-28T08:36:25.902Z,23.40
2023-01-28T08:38:56.409Z,23.63
2023-01-28T08:41:24.959Z,25.90
2023-01-28T08:43:53.234Z,21.10
2023-01-28T08:46:21.639Z,21.80
2023-01-28T08:48:51.341Z,24.17
2023-01-28T08:51:19.808Z,20.47
2023-01-28T08:53:48.119Z,21.23
2023-01-28T08:56:17.822Z,25.37
2023-01-28T08:58:46.189Z,23.87
2023-01-28T09:01:14.996Z,20.03
2023-01-28T09:03:43.409Z,20.50
2023-01-28T09:06:11.733Z,22.03
2023-01-28T09:08:40.003Z,24.07
2023-01-28T09:11:08.346Z,22.63
2023-01-28T09:13:37.998Z,20.10
2023-01-28T09:16:06.831Z,19.80
2023-01-28T09:18:35.030Z,20.43
2023-01-28T09:21:06.769Z,21.80
2023-01-28T09:23:37.000Z,20.97
2023-01-28T09:26:06.860Z,22.13
2023-01-28T09:28:35.239Z,24.67
2023-01-28T09:31:06.889Z,25.43
2023-01-28T09:33:35.549Z,24.90
2023-01-28T09:36:05.663Z,23.03
2023-01-28T09:38:35.218Z,28.03
2023-01-28T09:41:10.445Z,22.00
2023-01-28T09:44:26.825Z,27.70
2023-01-28T09:47:02.965Z,21.70
2023-01-28T09:49:38.611Z,22.40
2023-01-28T09:52:06.916Z,23.37
2023-01-28T09:54:44.353Z,23.00
2023-01-28T09:57:21.212Z,22.97
2023-01-28T09:59:50.450Z,27.97
2023-01-28T10:02:37.249Z,22.10
2023-01-28T10:05:17.835Z,26.67
2023-01-28T10:07:56.314Z,31.47
2023-01-28T10:10:30.806Z,27.27
2023-01-28T10:13:22.056Z,33.73
2023-01-28T10:15:58.484Z,24.17
2023-01-28T10:18:36.881Z,26.30
2023-01-28T10:21:12.610Z,30.87
2023-01-28T10:23:50.243Z,25.03
2023-01-28T10:26:24.569Z,24.37
2023-01-28T10:28:58.016Z,25.60
2023-01-28T10:31:32.424Z,27.17
2023-01-28T10:34:04.445Z,26.90
2023-01-28T10:36:33.063Z,24.77
2023-01-28T10:39:01.296Z,25.87
2023-01-28T10:41:29.537Z,24.63
2023-01-28T10:43:59.373Z,26.30
2023-01-28T10:46:30.646Z,25.50
2023-01-28T10:49:07.624Z,22.70
2023-01-28T10:51:38.012Z,23.37
2023-01-28T10:54:23.011Z,24.57
2023-01-28T10:56:54.716Z,23.50
2023-01-28T10:59:27.734Z,22.70
2023-01-28T11:01:58.453Z,24.27
2023-01-28T11:04:30.789Z,28.97
2023-01-28T11:07:01.601Z,23.93
2023-01-28T11:09:32.105Z,24.20
2023-01-28T11:12:12.108Z,23.00
2023-01-28T11:14:45.268Z,24.53
2023-01-28T11:17:18.755Z,22.73
2023-01-28T11:19:48.766Z,26.03
2023-01-28T11:22:26.035Z,23.60
2023-01-28T11:24:54.761Z,24.70
2023-01-28T11:27:28.333Z,25.37
2023-01-28T11:29:58.610Z,26.93
2023-01-28T11:32:27.875Z,23.50
2023-01-28T11:34:59.212Z,23.23
2023-01-28T11:37:29.603Z,22.73
2023-01-28T11:40:21.457Z,26.03
2023-01-28T11:42:51.985Z,24.77
2023-01-28T11:45:24.168Z,22.37
2023-01-28T11:48:08.980Z,20.30
2023-01-28T11:50:46.495Z,20.47
2023-01-28T11:53:44.916Z,21.50
2023-01-28T11:56:27.284Z,17.30
2023-01-28T11:59:05.197Z,18.83
2023-01-28T12:01:45.487Z,18.13
2023-01-28T12:04:25.165Z,18.13
2023-01-28T12:07:23.907Z,16.07
2023-01-28T12:09:58.076Z,17.53
2023-01-28T12:12:56.095Z,15.40
2023-01-28T12:15:52.196Z,16.33
2023-01-28T12:18:40.372Z,15.07
2023-01-28T12:21:14.658Z,13.10
2023-01-28T12:24:02.841Z,11.27
2023-01-28T12:26:39.241Z,12.90
2023-01-28T12:29:19.929Z,11.13
2023-01-28T12:32:00.127Z,10.03
2023-01-28T12:34:57.277Z,10.50
2023-01-28T12:37:36.785Z,10.50
2023-01-28T12:40:26.446Z,8.40
2023-01-28T12:42:58.038Z,7.20
2023-01-28T12:45:33.485Z,7.17
2023-01-28T12:48:07.983Z,6.93
2023-01-28T12:50:40.859Z,6.13
2023-01-28T12:53:20.924Z,8.00
2023-01-28T12:55:55.746Z,6.63
2023-01-28T12:58:32.306Z,7.00
2023-01-28T13:01:06.424Z,8.07
2023-01-28T13:03:41.063Z,11.87
2023-01-28T13:06:15.058Z,11.27
2023-01-28T13:08:43.552Z,9.30
2023-01-28T13:11:18.326Z,9.80
2023-01-28T13:13:47.979Z,10.10
2023-01-28T13:16:17.895Z,8.97
2023-01-28T13:18:47.883Z,11.50
2023-01-28T13:21:47.587Z,11.70
2023-01-28T13:24:33.005Z,11.07
2023-01-28T13:27:13.913Z,10.27
2023-01-28T13:29:42.519Z,11.47
2023-01-28T13:32:32.945Z,9.27
2023-01-28T13:35:03.793Z,8.37
2023-01-28T13:37:35.179Z,10.00
2023-01-28T13:40:24.102Z,13.20
2023-01-28T13:43:02.870Z,17.93
2023-01-28T13:45:31.482Z,13.27
2023-01-28T13:48:20.553Z,9.07
2023-01-28T13:50:53.358Z,10.27
2023-01-28T13:53:31.760Z,9.20
2023-01-28T13:56:01.171Z,11.00
2023-01-28T13:58:55.824Z,8.20
2023-01-28T14:01:51.718Z,8.87
2023-01-28T14:05:04.586Z,10.47
2023-01-28T14:08:01.364Z,12.20
2023-01-28T14:10:40.131Z,15.07
2023-01-28T14:13:55.985Z,14.33
2023-01-28T14:16:45.344Z,7.80
2023-01-28T14:19:14.843Z,10.00
2023-01-28T14:21:43.203Z,8.87
2023-01-28T14:24:18.215Z,10.70
2023-01-28T14:26:56.938Z,13.03
2023-01-28T14:29:42.928Z,11.30
2023-01-28T14:32:16.500Z,9.00
2023-01-28T14:34:46.477Z,9.40
2023-01-28T14:37:17.784Z,9.43
2023-01-28T14:39:49.576Z,12.77
2023-01-28T14:42:22.698Z,11.17
2023-01-28T14:45:01.575Z,12.10
2023-01-28T14:47:58.393Z,9.83
2023-01-28T14:50:40.256Z,9.83
2023-01-28T14:53:44.211Z,13.63
2023-01-28T14:56:22.182Z,11.73
2023-01-28T14:58:54.417Z,12.43
2023-01-28T15:01:26.656Z,9.73
2023-01-28T15:03:55.504Z,13.97
2023-01-28T15:06:25.384Z,13.40
2023-01-28T15:08:54.687Z,10.10
2023-01-28T15:11:26.075Z,14.07
2023-01-28T15:13:59.274Z,11.50
2023-01-28T15:16:31.603Z,14.90
2023-01-28T15:19:02.959Z,12.13
2023-01-28T15:21:31.914Z,11.13
2023-01-28T15:24:03.366Z,12.63
2023-01-28T15:26:34.641Z,15.13
2023-01-28T15:29:02.907Z,11.63
2023-01-28T15:31:35.300Z,13.37
2023-01-28T15:34:05.874Z,14.47
2023-01-28T15:36:34.071Z,13.50
2023-01-28T15:39:02.463Z,13.93
2023-01-28T15:41:35.577Z,25.87
2023-01-28T15:44:05.271Z,47.90
2023-01-28T15:46:34.980Z,40.97
2023-01-28T15:49:04.915Z,16.23
2023-01-28T15:51:35.080Z,16.50
2023-01-28T15:54:07.617Z,18.53
2023-01-28T15:56:36.931Z,17.37
2023-01-28T15:59:19.125Z,14.40
2023-01-28T16:01:48.869Z,16.87
2023-01-28T16:04:28.291Z,22.33
2023-01-28T16:06:59.962Z,20.70
2023-01-28T16:09:30.900Z,18.87
2023-01-28T16:12:04.031Z,19.30
2023-01-28T16:14:36.288Z,19.07
2023-01-28T16:17:06.094Z,23.17
2023-01-28T16:19:39.992Z,19.47
2023-01-28T16:22:18.126Z,20.57
2023-01-28T16:24:52.346Z,17.53
2023-01-28T16:27:23.130Z,18.73
2023-01-28T16:29:51.630Z,22.97
2023-01-28T16:32:36.995Z,24.03
2023-01-28T16:35:13.175Z,25.30
2023-01-28T16:37:42.545Z,46.37
2023-01-28T16:40:13.331Z,31.33
2023-01-28T16:42:41.736Z,29.70
2023-01-28T16:45:18.190Z,21.93
2023-01-28T16:47:48.471Z,21.93
2023-01-28T16:50:17.294Z,21.33
2023-01-28T16:52:48.115Z,25.90
2023-01-28T16:55:19.316Z,23.00
2023-01-28T16:57:50.344Z,22.13
2023-01-28T17:00:23.232Z,26.37
2023-01-28T17:03:12.643Z,29.03
2023-01-28T17:05:41.349Z,22.10
2023-01-28T17:08:09.972Z,23.17
2023-01-28T17:10:38.255Z,26.73
2023-01-28T17:13:06.795Z,27.67
2023-01-28T17:15:36.482Z,26.87
2023-01-28T17:18:04.954Z,25.80
2023-01-28T17:20:37.483Z,26.40
2023-01-28T17:23:07.472Z,26.50
2023-01-28T17:25:39.387Z,30.37
2023-01-28T17:28:08.139Z,36.43
2023-01-28T17:30:41.036Z,27.60
2023-01-28T17:33:10.215Z,36.87
2023-01-28T17:35:40.092Z,30.03
2023-01-28T17:38:08.272Z,29.30
2023-01-28T17:40:36.635Z,28.87
2023-01-28T17:43:05.157Z,31.90
2023-01-28T17:45:33.836Z,31.03
2023-01-28T17:48:02.057Z,33.80
2023-01-28T17:50:30.483Z,33.47
2023-01-28T17:53:00.593Z,30.20
2023-01-28T17:55:29.638Z,32.63
2023-01-28T17:57:58.589Z,34.53
2023-01-28T18:00:27.603Z,35.03
2023-01-28T18:02:55.758Z,36.80
2023-01-28T18:05:24.346Z,34.10
2023-01-28T18:07:52.663Z,35.10
2023-01-28T18:10:22.470Z,32.30
2023-01-28T18:12:50.938Z,34.23
2023-01-28T18:15:19.683Z,33.07
2023-01-28T18:17:47.958Z,32.43
2023-01-28T18:20:16.732Z,35.57
2023-01-28T18:22:45.342Z,34.93
2023-01-28T18:25:16.461Z,36.47
2023-01-28T18:27:46.763Z,34.33
2023-01-28T18:30:16.437Z,30.97
2023-01-28T18:32:44.756Z,30.70
2023-01-28T18:35:13.911Z,27.33
2023-01-28T18:37:42.661Z,27.23
2023-01-28T18:40:12.337Z,31.87
2023-01-28T18:42:45.184Z,28.53
2023-01-28T18:45:13.942Z,28.00
2023-01-28T18:47:42.455Z,27.50
2023-01-28T18:50:11.905Z,37.13
2023-01-28T18:52:40.165Z,36.90
2023-01-28T18:55:09.714Z,32.60
2023-01-28T18:57:38.021Z,31.63
2023-01-28T19:00:09.300Z,28.70
2023-01-28T19:02:37.466Z,33.67
2023-01-28T19:05:06.575Z,35.10
2023-01-28T19:07:34.945Z,37.20
2023-01-28T19:10:03.364Z,38.00
2023-01-28T19:12:32.284Z,36.80
2023-01-28T19:15:00.507Z,37.50
2023-01-28T19:17:30.117Z,25.87
2023-01-28T19:19:58.586Z,28.27
2023-01-28T19:22:26.765Z,27.53
2023-01-28T19:24:54.940Z,27.87
2023-01-28T19:27:23.521Z,30.83
2023-01-28T19:29:51.747Z,30.50
2023-01-28T19:32:20.028Z,36.63
2023-01-28T19:34:49.921Z,34.90
2023-01-28T19:37:18.163Z,37.57
2023-01-28T19:39:46.448Z,40.90
2023-01-28T19:42:14.868Z,35.37
2023-01-28T19:44:43.132Z,43.10
2023-01-28T19:47:11.325Z,42.67
2023-01-28T19:49:40.268Z,48.07
2023-01-28T19:52:10.938Z,52.07
2023-01-28T19:54:39.150Z,53.00
2023-01-28T19:57:07.787Z,59.27
2023-01-28T19:59:35.972Z,67.13
2023-01-28T20:02:04.210Z,70.80
2023-01-28T20:04:33.122Z,68.33
2023-01-28T20:07:01.355Z,66.63
2023-01-28T20:09:31.023Z,64.80
2023-01-28T20:11:59.444Z,70.00
2023-01-28T20:14:30.277Z,77.17
2023-01-28T20:16:58.584Z,77.87
2023-01-28T20:19:27.281Z,80.10
2023-01-28T20:21:55.484Z,73.10
2023-01-28T20:24:23.728Z,79.80
2023-01-28T20:26:53.639Z,81.67
2023-01-28T20:29:22.501Z,73.73
2023-01-28T20:32:08.888Z,70.27
2023-01-28T20:34:39.389Z,72.43
2023-01-28T20:37:10.119Z,67.60
2023-01-28T20:39:38.384Z,74.87
2023-01-28T20:42:10.254Z,73.20
2023-01-28T20:44:38.429Z,66.07
2023-01-28T20:47:06.826Z,76.33
2023-01-28T20:49:35.083Z,70.13
2023-01-28T20:52:04.394Z,71.13
2023-01-28T20:54:32.777Z,70.27
2023-01-28T20:57:01.082Z,70.27
2023-01-28T20:59:32.297Z,71.93
2023-01-28T21:02:01.717Z,66.43
2023-01-28T21:04:29.893Z,65.50
2023-01-28T21:06:58.082Z,71.30
2023-01-28T21:09:27.971Z,68.23
2023-01-28T21:11:56.172Z,66.93
2023-01-28T21:14:24.517Z,70.47
2023-01-28T21:16:54.534Z,65.20
2023-01-28T21:19:22.907Z,64.60
2023-01-28T21:21:51.113Z,62.90
2023-01-28T21:24:19.536Z,67.57
2023-01-28T21:26:47.735Z,65.33
2023-01-28T21:29:17.435Z,62.97
2023-01-28T21:31:46.349Z,67.53
2023-01-28T21:34:16.847Z,68.47
2023-01-28T21:36:45.161Z,73.27
2023-01-28T21:39:13.746Z,73.63
2023-01-28T21:41:41.934Z,71.53
2023-01-28T21:44:12.965Z,74.70
2023-01-28T21:46:41.517Z,69.93
2023-01-28T21:49:12.276Z,70.30
2023-01-28T21:51:46.202Z,70.17
2023-01-28T21:54:16.137Z,71.83
2023-01-28T21:56:45.833Z,67.27
2023-01-28T21:59:29.128Z,65.80
2023-01-28T22:01:59.014Z,66.37
2023-01-28T22:04:28.487Z,68.13
2023-01-28T22:06:58.756Z,67.13
2023-01-28T22:09:28.372Z,69.40
2023-01-28T22:11:57.014Z,77.87
2023-01-28T22:14:25.573Z,76.50
2023-01-28T22:16:54.158Z,68.07
2023-01-28T22:19:22.489Z,65.63
2023-01-28T22:21:51.114Z,70.37
2023-01-28T22:24:22.565Z,67.43
2023-01-28T22:26:51.807Z,65.97
2023-01-28T22:29:21.861Z,69.57
2023-01-28T22:31:52.292Z,68.27
2023-01-28T22:34:22.025Z,69.60
2023-01-28T22:36:51.823Z,64.77
2023-01-28T22:39:21.815Z,65.87
2023-01-28T22:41:49.998Z,67.47
2023-01-28T22:44:19.919Z,61.43
2023-01-28T22:46:48.661Z,65.23
2023-01-28T22:49:16.927Z,72.67
2023-01-28T22:51:45.260Z,74.00
2023-01-28T22:54:15.038Z,111.67
2023-01-28T22:56:45.184Z,184.57
2023-01-28T22:59:13.776Z,127.70
2023-01-28T23:01:42.757Z,125.90
2023-01-28T23:04:11.128Z,111.90
2023-01-28T23:06:39.525Z,75.90
2023-01-28T23:09:08.403Z,67.63
2023-01-28T23:11:36.653Z,80.97
2023-01-28T23:14:25.535Z,71.03
2023-01-28T23:17:11.820Z,73.67
2023-01-28T23:19:57.825Z,70.13
2023-01-28T23:22:49.802Z,65.93
2023-01-28T23:25:19.301Z,69.10
2023-01-28T23:27:47.538Z,67.27
2023-01-28T23:30:25.255Z,70.47
2023-01-28T23:32:56.903Z,77.47
2023-01-28T23:35:27.397Z,69.57
2023-01-28T23:37:56.637Z,74.20
2023-01-28T23:40:27.130Z,68.53
2023-01-28T23:42:56.626Z,67.80
2023-01-28T23:45:26.298Z,71.27
2023-01-28T23:47:54.518Z,68.17
2023-01-28T23:50:23.145Z,62.67
2023-01-28T23:52:51.330Z,67.50
2023-01-28T23:55:19.664Z,65.73
2023-01-28T23:57:48.071Z,64.60
